Time;durP1;ratioP1;P1;durP2;ratioP2;P2;SDS_P1;SDS_P2;PMS_P1;PMS_P2;Temp;Humidity;BMP_temperature;BMP_pressure;BME280_temperature;BME280_humidity;BME280_pressure;Samples;Min_cycle;Max_cycle;Signal;HPM_P1;HPM_P2
2021/06/16 00:00:19;;;;;;;0.22;0.10;;;;;;;-148.58;100.00;55229.56;5014128;28;20025;-61
2021/06/16 00:02:45;;;;;;;0.70;0.30;;;;;;;-148.58;100.00;55229.56;5014166;28;20050;-61
2021/06/16 00:05:15;;;;;;;0.73;0.13;;;;;;;-148.58;100.00;55229.56;5013822;28;20532;-61
2021/06/16 00:07:40;;;;;;;0.20;0.10;;;;;;;-148.58;100.00;55229.56;5014178;28;20477;-61
2021/06/16 00:10:07;;;;;;;1.05;0.10;;;;;;;-148.58;100.00;55229.56;5014532;28;20033;-61
2021/06/16 00:12:33;;;;;;;0.28;0.10;;;;;;;-148.58;100.00;55229.56;5014048;28;20033;-61
2021/06/16 00:15:01;;;;;;;0.00;0.00;;;;;;;-148.58;100.00;55229.56;5014120;28;20030;-61
2021/06/16 00:17:26;;;;;;;1.65;0.22;;;;;;;-148.58;100.00;55229.56;5014111;28;20425;-61
2021/06/16 00:19:51;;;;;;;0.20;0.10;;;;;;;-148.58;100.00;55229.56;5013850;28;20293;-61
2021/06/16 00:22:17;;;;;;;0.60;0.08;;;;;;;-148.58;100.00;55229.56;5014219;28;20038;-61
2021/06/16 00:24:42;;;;;;;0.32;0.10;;;;;;;-148.58;100.00;55229.56;5013820;28;20025;-61
2021/06/16 00:27:08;;;;;;;0.93;0.20;;;;;;;-148.58;100.00;55229.56;5013952;28;20029;-61
2021/06/16 00:29:33;;;;;;;0.28;0.10;;;;;;;-148.58;100.00;55229.56;5013817;28;20149;-61
2021/06/16 00:31:58;;;;;;;0.40;0.20;;;;;;;-148.58;100.00;55229.56;5014046;28;20026;-61
2021/06/16 00:34:24;;;;;;;0.10;0.10;;;;;;;-148.58;100.00;55229.56;5013485;28;20101;-61
2021/06/16 00:36:50;;;;;;;0.57;0.22;;;;;;;-148.58;100.00;55229.56;5013893;28;20351;-61
2021/06/16 00:39:15;;;;;;;0.70;0.10;;;;;;;-148.58;100.00;55229.56;5013638;28;20024;-61
2021/06/16 00:41:41;;;;;;;0.50;0.25;;;;;;;-148.58;100.00;55229.56;5013480;28;20381;-60
2021/06/16 00:44:07;;;;;;;0.52;0.30;;;;;;;-148.58;100.00;55229.56;5013661;28;20394;-61
2021/06/16 00:46:33;;;;;;;0.40;0.25;;;;;;;-148.58;100.00;55229.56;5013489;28;20411;-61
2021/06/16 00:48:58;;;;;;;0.85;0.30;;;;;;;-148.58;100.00;55229.56;5013476;28;20026;-60
2021/06/16 00:51:24;;;;;;;0.28;0.25;;;;;;;-148.58;100.00;55229.56;5013639;28;20204;-61
2021/06/16 00:53:49;;;;;;;0.93;0.20;;;;;;;-148.58;100.00;55229.56;5013316;28;20500;-60
2021/06/16 00:56:15;;;;;;;0.40;0.10;;;;;;;-148.58;100.00;55229.56;5013337;28;20129;-60
2021/06/16 00:58:41;;;;;;;0.40;0.20;;;;;;;-148.58;100.00;55229.56;5013190;28;20034;-61
2021/06/16 01:01:12;;;;;;;0.60;0.45;;;;;;;-148.58;100.00;55229.56;5013287;28;20033;-60
2021/06/16 01:04:01;;;;;;;1.08;0.20;;;;;;;-148.58;100.00;55229.56;5012839;28;20057;-61
2021/06/16 01:06:35;;;;;;;0.82;0.13;;;;;;;-148.58;100.00;55229.56;5012805;28;20109;-61
2021/06/16 01:09:06;;;;;;;0.30;0.13;;;;;;;-148.58;100.00;55229.56;5013181;28;20269;-61
2021/06/16 01:11:36;;;;;;;0.47;0.10;;;;;;;-148.58;100.00;55229.56;5013138;28;20045;-61
2021/06/16 01:14:13;;;;;;;0.63;0.20;;;;;;;-148.58;100.00;55229.56;5012852;28;20028;-60
2021/06/16 01:17:08;;;;;;;1.30;0.20;;;;;;;-148.58;100.00;55229.56;5012976;28;20034;-61
2021/06/16 01:19:52;;;;;;;0.10;0.10;;;;;;;-148.58;100.00;55229.56;5011748;28;20042;-61
2021/06/16 01:22:28;;;;;;;1.30;0.10;;;;;;;-148.58;100.00;55229.56;5013012;28;20025;-61
2021/06/16 01:24:56;;;;;;;0.43;0.22;;;;;;;-148.58;100.00;55229.56;5012910;28;20026;-61
2021/06/16 01:27:24;;;;;;;0.15;0.10;;;;;;;-148.58;100.00;55229.56;4995434;28;20511;-61
2021/06/16 01:29:50;;;;;;;0.80;0.22;;;;;;;-148.58;100.00;55229.56;5012745;28;20022;-61
2021/06/16 01:32:15;;;;;;;0.30;0.10;;;;;;;-148.58;100.00;55229.56;5012914;28;20030;-60
2021/06/16 01:34:40;;;;;;;1.08;0.13;;;;;;;-148.58;100.00;55229.56;5012499;28;20026;-61
2021/06/16 01:37:06;;;;;;;0.90;0.15;;;;;;;-148.58;100.00;55229.56;5012862;28;20075;-60
2021/06/16 01:39:36;;;;;;;0.25;0.03;;;;;;;-148.58;100.00;55229.56;5012586;28;20045;-61
2021/06/16 01:42:07;;;;;;;0.28;0.08;;;;;;;-148.58;100.00;55229.56;5012692;28;20022;-60
2021/06/16 01:44:34;;;;;;;0.70;0.10;;;;;;;-148.58;100.00;55229.56;5012952;28;20034;-60
2021/06/16 01:47:00;;;;;;;0.30;0.10;;;;;;;-148.58;100.00;55229.56;5018953;28;20350;-61
2021/06/16 01:49:28;;;;;;;1.55;0.22;;;;;;;-148.58;100.00;55229.56;5019332;28;20480;-60
2021/06/16 01:51:54;;;;;;;0.20;0.10;;;;;;;-148.58;100.00;55229.56;5019138;28;20021;-60
2021/06/16 01:54:21;;;;;;;0.30;0.10;;;;;;;-148.58;100.00;55229.56;5019179;28;20313;-60
2021/06/16 01:56:48;;;;;;;0.55;0.10;;;;;;;-148.58;100.00;55229.56;5018978;28;20104;-60
2021/06/16 01:59:15;;;;;;;1.00;0.25;;;;;;;-148.58;100.00;55229.56;5019179;28;20026;-60
2021/06/16 02:01:41;;;;;;;0.38;0.10;;;;;;;-148.58;100.00;55229.56;5019029;28;20121;-61
2021/06/16 02:04:07;;;;;;;0.10;0.03;;;;;;;-148.58;100.00;55229.56;5018686;28;20109;-60
2021/06/16 02:06:38;;;;;;;0.45;0.10;;;;;;;-148.58;100.00;55229.56;5018625;28;20048;-60
2021/06/16 02:09:05;;;;;;;0.82;0.20;;;;;;;-148.58;100.00;55229.56;5019266;28;20476;-61
2021/06/16 02:11:31;;;;;;;0.82;0.20;;;;;;;-148.58;100.00;55229.56;5019175;28;20021;-60
2021/06/16 02:13:59;;;;;;;0.52;0.20;;;;;;;-148.58;100.00;55229.56;5018888;28;20030;-60
2021/06/16 02:16:31;;;;;;;0.10;0.10;;;;;;;-148.58;100.00;55229.56;5001323;28;20049;-60
2021/06/16 02:19:05;;;;;;;0.25;0.10;;;;;;;-148.58;100.00;55229.56;5019134;28;20060;-60
2021/06/16 02:21:31;;;;;;;0.05;0.05;;;;;;;-148.58;100.00;55229.56;5019102;28;20029;-60
2021/06/16 02:23:57;;;;;;;0.80;0.28;;;;;;;-148.58;100.00;55229.56;5019125;28;20369;-61
2021/06/16 02:26:23;;;;;;;0.20;0.10;;;;;;;-148.58;100.00;55229.56;5018928;28;20026;-61
2021/06/16 02:28:49;;;;;;;0.35;0.22;;;;;;;-148.58;100.00;55229.56;5018813;28;20040;-60
2021/06/16 02:31:14;;;;;;;0.55;0.10;;;;;;;-148.58;100.00;55229.56;5018908;28;20029;-61
2021/06/16 02:33:40;;;;;;;0.65;0.20;;;;;;;-148.58;100.00;55229.56;5018638;28;20064;-60
2021/06/16 02:36:07;;;;;;;0.55;0.10;;;;;;;-148.58;100.00;55229.56;5018818;28;20092;-61
2021/06/16 02:38:34;;;;;;;0.70;0.10;;;;;;;-148.58;100.00;55229.56;5018806;28;20375;-61
2021/06/16 02:41:03;;;;;;;1.23;0.40;;;;;;;-148.58;100.00;55229.56;5018673;28;20022;-60
2021/06/16 02:43:28;;;;;;;1.70;0.45;;;;;;;-148.58;100.00;55229.56;5018879;28;20642;-61
2021/06/16 02:45:56;;;;;;;0.30;0.10;;;;;;;-148.58;100.00;55229.56;5018648;28;20034;-60
2021/06/16 02:48:23;;;;;;;0.50;0.17;;;;;;;-148.58;100.00;55229.56;5018702;28;20080;-60
2021/06/16 02:50:50;;;;;;;0.75;0.45;;;;;;;-148.58;100.00;55229.56;5018595;28;20025;-60
2021/06/16 02:53:19;;;;;;;0.22;0.13;;;;;;;-148.58;100.00;55229.56;5018655;28;20033;-60
2021/06/16 02:55:48;;;;;;;0.15;0.10;;;;;;;-148.58;100.00;55229.56;5018597;28;20029;-61
2021/06/16 02:58:16;;;;;;;0.70;0.13;;;;;;;-148.58;100.00;55229.56;5014468;28;20092;-61
2021/06/16 03:00:43;;;;;;;0.50;0.20;;;;;;;-148.58;100.00;55229.56;5015380;28;20061;-61
2021/06/16 03:03:09;;;;;;;1.02;0.10;;;;;;;-148.58;100.00;55229.56;5015547;28;20022;-61
2021/06/16 03:05:36;;;;;;;0.20;0.20;;;;;;;-148.58;100.00;55229.56;5010332;28;20042;-61
2021/06/16 03:08:02;;;;;;;1.20;0.20;;;;;;;-148.58;100.00;55229.56;4995712;28;20577;-60
2021/06/16 03:10:29;;;;;;;0.50;0.17;;;;;;;-148.58;100.00;55229.56;4996342;28;20030;-61
2021/06/16 03:12:57;;;;;;;0.52;0.10;;;;;;;-148.58;100.00;55229.56;4995680;28;20068;-60
2021/06/16 03:15:23;;;;;;;0.35;0.08;;;;;;;-148.58;100.00;55229.56;4996074;28;20023;-60
2021/06/16 03:17:49;;;;;;;0.50;0.35;;;;;;;-148.58;100.00;55229.56;4995255;28;20026;-60
2021/06/16 03:20:17;;;;;;;0.40;0.20;;;;;;;-148.58;100.00;55229.56;4995440;28;20430;-60
2021/06/16 03:22:44;;;;;;;0.68;0.10;;;;;;;-148.58;100.00;55229.56;4995494;28;20026;-61
2021/06/16 03:25:11;;;;;;;0.10;0.03;;;;;;;-148.58;100.00;55229.56;4994637;28;20057;-60
2021/06/16 03:27:37;;;;;;;0.80;0.10;;;;;;;-148.58;100.00;55229.56;4995499;28;20120;-61
2021/06/16 03:30:03;;;;;;;0.52;0.20;;;;;;;-148.58;100.00;55229.56;4995374;28;20022;-60
2021/06/16 03:32:30;;;;;;;0.40;0.10;;;;;;;-148.58;100.00;55229.56;4995357;28;20026;-61
2021/06/16 03:34:55;;;;;;;1.00;0.20;;;;;;;-148.58;100.00;55229.56;4993494;28;20418;-60
2021/06/16 03:37:21;;;;;;;1.45;0.17;;;;;;;-148.58;100.00;55229.56;4993923;28;20030;-60
2021/06/16 03:39:51;;;;;;;0.57;0.20;;;;;;;-148.58;100.00;55229.56;4995093;28;20023;-61
2021/06/16 03:42:17;;;;;;;0.50;0.03;;;;;;;-148.58;100.00;55229.56;4993868;28;20033;-60
2021/06/16 03:44:44;;;;;;;1.05;0.35;;;;;;;-148.58;100.00;55229.56;4995070;28;20045;-60
2021/06/16 03:47:11;;;;;;;1.38;0.20;;;;;;;-148.58;100.00;55229.56;4995132;28;20406;-60
2021/06/16 03:49:39;;;;;;;0.52;0.10;;;;;;;-148.58;100.00;55229.56;4995126;28;20113;-61
2021/06/16 03:52:05;;;;;;;0.17;0.10;;;;;;;-148.58;100.00;55229.56;4995003;28;20034;-60
2021/06/16 03:54:31;;;;;;;0.38;0.10;;;;;;;-148.58;100.00;55229.56;4993665;28;20030;-60
2021/06/16 03:56:57;;;;;;;0.10;0.10;;;;;;;-148.58;100.00;55229.56;4994736;28;20032;-60
2021/06/16 03:59:23;;;;;;;0.47;0.35;;;;;;;-148.58;100.00;55229.56;4994998;28;20027;-61
2021/06/16 04:01:48;;;;;;;0.85;0.10;;;;;;;-148.58;100.00;55229.56;4994583;28;20488;-61
2021/06/16 04:04:14;;;;;;;1.05;0.20;;;;;;;-148.58;100.00;55229.56;5002017;28;20056;-60
2021/06/16 04:06:45;;;;;;;1.52;0.40;;;;;;;-148.58;100.00;55229.56;5014076;28;20354;-61
2021/06/16 04:09:12;;;;;;;0.40;0.20;;;;;;;-148.58;100.00;55229.56;4996707;28;20365;-61
2021/06/16 04:11:39;;;;;;;0.28;0.10;;;;;;;-148.58;100.00;55229.56;5014241;28;20068;-60
2021/06/16 04:14:04;;;;;;;0.30;0.10;;;;;;;-148.58;100.00;55229.56;5014167;28;20038;-60
2021/06/16 04:16:30;;;;;;;0.38;0.10;;;;;;;-148.58;100.00;55229.56;5014142;28;20122;-60
2021/06/16 04:18:56;;;;;;;0.25;0.03;;;;;;;-148.58;100.00;55229.56;4996275;28;20025;-60
2021/06/16 04:21:22;;;;;;;0.65;0.30;;;;;;;-148.58;100.00;55229.56;5014182;28;20026;-60
2021/06/16 04:23:48;;;;;;;0.57;0.20;;;;;;;-148.58;100.00;55229.56;5013859;28;20052;-61
2021/06/16 04:26:15;;;;;;;0.73;0.10;;;;;;;-148.58;100.00;55229.56;5013894;28;20032;-60
2021/06/16 04:28:40;;;;;;;1.17;0.10;;;;;;;-148.58;100.00;55229.56;5014039;28;20033;-60
2021/06/16 04:31:06;;;;;;;0.30;0.20;;;;;;;-148.58;100.00;55229.56;5013928;28;20022;-60
2021/06/16 04:33:32;;;;;;;0.13;0.10;;;;;;;-148.58;100.00;55229.56;5013697;28;20064;-60
2021/06/16 04:35:57;;;;;;;0.17;0.08;;;;;;;-148.58;100.00;55229.56;5013642;28;20038;-63
2021/06/16 04:38:22;;;;;;;0.57;0.15;;;;;;;-148.58;100.00;55229.56;5013752;28;20033;-60
2021/06/16 04:40:48;;;;;;;0.22;0.05;;;;;;;-148.58;100.00;55229.56;5013477;28;20034;-60
2021/06/16 04:43:13;;;;;;;0.20;0.00;;;;;;;-148.58;100.00;55229.56;5013746;28;20029;-60
2021/06/16 04:45:38;;;;;;;0.57;0.00;;;;;;;-148.58;100.00;55229.56;5013587;28;20032;-60
2021/06/16 04:48:05;;;;;;;0.28;0.10;;;;;;;-148.58;100.00;55229.56;5013621;28;20365;-60
2021/06/16 04:50:30;;;;;;;0.80;0.10;;;;;;;-148.58;100.00;55229.56;5013519;28;20098;-60
2021/06/16 04:52:56;;;;;;;0.45;0.10;;;;;;;-148.58;100.00;55229.56;5013402;28;20540;-60
2021/06/16 04:55:21;;;;;;;0.05;0.05;;;;;;;-148.58;100.00;55229.56;5013469;28;20026;-60
2021/06/16 04:57:46;;;;;;;0.80;0.10;;;;;;;-148.58;100.00;55229.56;5013203;28;20034;-61
2021/06/16 05:00:12;;;;;;;0.22;0.10;;;;;;;-148.58;100.00;55229.56;5013322;28;20022;-60
2021/06/16 05:02:38;;;;;;;0.25;0.00;;;;;;;-148.58;100.00;55229.56;5013186;28;20504;-61
2021/06/16 05:05:05;;;;;;;0.20;0.10;;;;;;;-148.58;100.00;55229.56;5012424;28;20057;-60
2021/06/16 05:07:31;;;;;;;0.10;0.00;;;;;;;-148.58;100.00;55229.56;5013223;28;20385;-60
2021/06/16 05:09:56;;;;;;;0.52;0.10;;;;;;;-148.58;100.00;55229.56;5013147;28;20025;-60
2021/06/16 05:12:21;;;;;;;0.00;0.00;;;;;;;-148.58;100.00;55229.56;5012817;28;20037;-61
2021/06/16 05:14:47;;;;;;;0.65;0.00;;;;;;;-148.58;100.00;55229.56;5012911;28;20096;-60
2021/06/16 05:17:12;;;;;;;1.23;0.10;;;;;;;-148.58;100.00;55229.56;5013107;28;20018;-60
2021/06/16 05:19:38;;;;;;;0.75;0.10;;;;;;;-148.58;100.00;55229.56;5012810;28;20026;-60
2021/06/16 05:22:10;;;;;;;0.60;0.00;;;;;;;-148.58;100.00;55229.56;5012824;28;20083;-60
2021/06/16 05:24:36;;;;;;;0.40;0.10;;;;;;;-148.58;100.00;55229.56;5012976;28;20047;-60
2021/06/16 05:27:01;;;;;;;0.45;0.10;;;;;;;-148.58;100.00;55229.56;5012884;28;20698;-60
2021/06/16 05:29:27;;;;;;;0.20;0.03;;;;;;;-148.58;100.00;55229.56;5013018;28;20028;-60
2021/06/16 05:31:52;;;;;;;0.10;0.10;;;;;;;-148.58;100.00;55229.56;5012829;28;20385;-60
2021/06/16 05:34:17;;;;;;;0.30;0.10;;;;;;;-148.58;100.00;55229.56;5012672;28;20025;-60
2021/06/16 05:36:43;;;;;;;2.85;0.13;;;;;;;-148.58;100.00;55229.56;5012759;28;20029;-61
2021/06/16 05:39:08;;;;;;;0.00;0.00;;;;;;;-148.58;100.00;55229.56;5012859;28;20030;-61
2021/06/16 05:41:34;;;;;;;0.20;0.10;;;;;;;-148.58;100.00;55229.56;5012763;28;20022;-61
2021/06/16 05:43:59;;;;;;;0.20;0.05;;;;;;;-148.58;100.00;55229.56;5012699;28;20083;-60
2021/06/16 05:46:24;;;;;;;0.00;0.00;;;;;;;-148.58;100.00;55229.56;5012793;28;20475;-60
2021/06/16 05:48:49;;;;;;;0.55;0.10;;;;;;;-148.58;100.00;55229.56;5012646;28;20052;-61
2021/06/16 05:51:15;;;;;;;0.00;0.00;;;;;;;-148.58;100.00;55229.56;5011733;28;20034;-61
2021/06/16 05:53:40;;;;;;;0.15;0.00;;;;;;;-148.58;100.00;55229.56;5012464;28;20472;-60
2021/06/16 05:56:05;;;;;;;0.35;0.00;;;;;;;-148.58;100.00;55229.56;5012853;28;20064;-61
2021/06/16 05:58:31;;;;;;;0.63;0.20;;;;;;;-148.58;100.00;55229.56;5012576;28;20033;-61
2021/06/16 06:00:56;;;;;;;0.52;0.03;;;;;;;-148.58;100.00;55229.56;5012396;28;20100;-60
2021/06/16 06:03:21;;;;;;;0.60;0.10;;;;;;;-148.58;100.00;55229.56;5012177;28;20026;-61
2021/06/16 06:05:47;;;;;;;0.75;0.08;;;;;;;-148.58;100.00;55229.56;5012472;28;20026;-60
2021/06/16 06:08:12;;;;;;;0.10;0.00;;;;;;;-148.58;100.00;55229.56;5012413;28;20064;-61
2021/06/16 06:10:37;;;;;;;0.10;0.00;;;;;;;-148.58;100.00;55229.56;5012445;28;20087;-60
2021/06/16 06:13:03;;;;;;;0.10;0.00;;;;;;;-148.58;100.00;55229.56;5012483;28;20069;-60
2021/06/16 06:15:28;;;;;;;0.28;0.10;;;;;;;-148.58;100.00;55229.56;5012603;28;20072;-60
2021/06/16 06:17:54;;;;;;;1.25;0.10;;;;;;;-148.58;100.00;55229.56;5012726;28;20500;-60
2021/06/16 06:20:20;;;;;;;0.20;0.05;;;;;;;-148.58;100.00;55229.56;5012006;28;20026;-60
2021/06/16 06:22:45;;;;;;;0.10;0.00;;;;;;;-148.58;100.00;55229.56;5011232;28;20025;-61
2021/06/16 06:25:12;;;;;;;1.25;0.20;;;;;;;-148.58;100.00;55229.56;5012614;28;20411;-61
2021/06/16 06:27:38;;;;;;;0.52;0.30;;;;;;;-148.58;100.00;55229.56;5010454;28;20045;-61
2021/06/16 06:30:05;;;;;;;0.00;0.00;;;;;;;-148.58;100.00;55229.56;5012722;28;20026;-61
2021/06/16 06:32:30;;;;;;;0.30;0.10;;;;;;;-148.58;100.00;55229.56;5015048;28;20109;-61
2021/06/16 06:34:56;;;;;;;0.30;0.00;;;;;;;-148.58;100.00;55229.56;5013254;28;20109;-61
2021/06/16 06:37:21;;;;;;;0.05;0.00;;;;;;;-148.58;100.00;55229.56;5014464;28;20068;-62
2021/06/16 06:39:49;;;;;;;0.08;0.00;;;;;;;-148.58;100.00;55229.56;5015612;28;20018;-61
2021/06/16 06:42:15;;;;;;;0.75;0.00;;;;;;;-148.58;100.00;55229.56;4999672;28;20045;-61
2021/06/16 06:44:41;;;;;;;0.10;0.00;;;;;;;-148.58;100.00;55229.56;5014234;28;20029;-60
2021/06/16 06:47:06;;;;;;;0.20;0.10;;;;;;;-148.58;100.00;55229.56;5016126;28;20018;-61
2021/06/16 06:49:32;;;;;;;0.98;0.30;;;;;;;-148.58;100.00;55229.56;5016358;28;20017;-61
2021/06/16 06:51:57;;;;;;;0.10;0.00;;;;;;;-148.58;100.00;55229.56;5015329;28;20029;-61
2021/06/16 06:54:22;;;;;;;0.35;0.10;;;;;;;-148.58;100.00;55229.56;5015141;28;20487;-60
2021/06/16 06:56:48;;;;;;;0.63;0.10;;;;;;;-148.58;100.00;55229.56;5015543;28;20041;-61
2021/06/16 06:59:13;;;;;;;0.20;0.10;;;;;;;-148.58;100.00;55229.56;5015615;28;20068;-61
2021/06/16 07:01:38;;;;;;;0.10;0.10;;;;;;;-148.58;100.00;55229.56;5015505;28;20393;-61
2021/06/16 07:04:04;;;;;;;0.10;0.10;;;;;;;-148.58;100.00;55229.56;5009608;28;20110;-61
2021/06/16 07:06:30;;;;;;;0.10;0.00;;;;;;;-148.58;100.00;55229.56;4995071;28;20377;-60
2021/06/16 07:08:57;;;;;;;0.90;0.00;;;;;;;-148.58;100.00;55229.56;4996114;28;20026;-61
2021/06/16 07:11:23;;;;;;;0.43;0.10;;;;;;;-148.58;100.00;55229.56;4993288;28;20024;-60
2021/06/16 07:13:49;;;;;;;0.20;0.00;;;;;;;-148.58;100.00;55229.56;4995288;28;20382;-61
2021/06/16 07:16:14;;;;;;;0.98;0.10;;;;;;;-148.58;100.00;55229.56;4996089;28;20019;-60
2021/06/16 07:18:40;;;;;;;0.13;0.00;;;;;;;-148.58;100.00;55229.56;4993321;28;20022;-61
2021/06/16 07:21:07;;;;;;;0.35;0.08;;;;;;;-148.58;100.00;55229.56;4995200;28;20544;-61
2021/06/16 07:23:33;;;;;;;0.40;0.00;;;;;;;-148.58;100.00;55229.56;4998889;28;20389;-60
2021/06/16 07:25:59;;;;;;;0.15;0.10;;;;;;;-148.58;100.00;55229.56;4996441;28;20030;-61
2021/06/16 07:28:24;;;;;;;0.10;0.10;;;;;;;-148.58;100.00;55229.56;4995545;28;20022;-61
2021/06/16 07:30:49;;;;;;;0.10;0.00;;;;;;;-148.58;100.00;55229.56;4995033;28;20022;-62
2021/06/16 07:33:15;;;;;;;0.13;0.00;;;;;;;-148.58;100.00;55229.56;4991191;28;20033;-60
2021/06/16 07:35:40;;;;;;;0.10;0.10;;;;;;;-148.58;100.00;55229.56;4983679;28;20370;-61
2021/06/16 07:38:06;;;;;;;0.20;0.10;;;;;;;-148.58;100.00;55229.56;4996246;28;20026;-62
2021/06/16 07:40:34;;;;;;;0.00;0.00;;;;;;;-148.58;100.00;55229.56;4996274;28;20101;-61
2021/06/16 07:42:59;;;;;;;0.75;0.10;;;;;;;-148.58;100.00;55229.56;4995514;28;20045;-61
2021/06/16 07:45:26;;;;;;;0.30;0.10;;;;;;;-148.58;100.00;55229.56;4996572;28;20478;-60
2021/06/16 07:48:00;;;;;;;0.43;0.10;;;;;;;-148.58;100.00;55229.56;4996051;28;20027;-61
2021/06/16 07:50:26;;;;;;;0.65;0.00;;;;;;;-148.58;100.00;55229.56;4987682;28;20031;-60
2021/06/16 07:52:52;;;;;;;0.08;0.00;;;;;;;-148.58;100.00;55229.56;4992334;28;20061;-61
2021/06/16 07:55:17;;;;;;;0.75;0.00;;;;;;;-148.58;100.00;55229.56;4983490;28;20038;-62
2021/06/16 07:57:43;;;;;;;0.57;0.20;;;;;;;-148.58;100.00;55229.56;4981392;28;20032;-60
2021/06/16 08:00:09;;;;;;;0.30;0.00;;;;;;;-148.58;100.00;55229.56;4985627;28;20058;-61
2021/06/16 08:02:34;;;;;;;0.28;0.10;;;;;;;-148.58;100.00;55229.56;4999873;28;20033;-60
2021/06/16 08:04:59;;;;;;;0.30;0.10;;;;;;;-148.58;100.00;55229.56;5026786;28;20068;-61
2021/06/16 08:07:25;;;;;;;0.10;0.10;;;;;;;-148.58;100.00;55229.56;5010080;28;20027;-60
2021/06/16 08:09:51;;;;;;;0.57;0.40;;;;;;;-148.58;100.00;55229.56;4997180;28;20069;-61
2021/06/16 08:12:17;;;;;;;0.47;0.20;;;;;;;-148.58;100.00;55229.56;4995031;28;20030;-60
2021/06/16 08:14:44;;;;;;;0.40;0.00;;;;;;;-148.58;100.00;55229.56;4992241;28;20369;-61
2021/06/16 08:17:10;;;;;;;0.10;0.00;;;;;;;-148.58;100.00;55229.56;4994745;28;20561;-61
2021/06/16 08:19:37;;;;;;;0.15;0.00;;;;;;;-148.58;100.00;55229.56;4993800;28;20053;-60
2021/06/16 08:22:04;;;;;;;0.20;0.08;;;;;;;-148.58;100.00;55229.56;4992329;28;20022;-61
2021/06/16 08:24:29;;;;;;;0.00;0.00;;;;;;;-148.58;100.00;55229.56;4990533;28;20026;-60
2021/06/16 08:26:55;;;;;;;0.45;0.00;;;;;;;-148.58;100.00;55229.56;4993070;28;20509;-60
2021/06/16 08:29:22;;;;;;;0.20;0.15;;;;;;;-148.58;100.00;55229.56;4993247;28;20496;-60
2021/06/16 08:31:47;;;;;;;0.38;0.25;;;;;;;-148.58;100.00;55229.56;5008809;28;20065;-60
2021/06/16 08:34:18;;;;;;;0.30;0.20;;;;;;;-148.58;100.00;55229.56;4993835;28;20022;-60
2021/06/16 08:36:45;;;;;;;0.20;0.10;;;;;;;-148.58;100.00;55229.56;4994382;28;20417;-60
2021/06/16 08:39:10;;;;;;;0.30;0.10;;;;;;;-148.58;100.00;55229.56;4994496;28;20105;-61
2021/06/16 08:41:37;;;;;;;0.00;0.00;;;;;;;-148.58;100.00;55229.56;4994639;28;20510;-60
2021/06/16 08:44:03;;;;;;;0.13;0.10;;;;;;;-148.58;100.00;55229.56;4990608;28;20030;-60
2021/06/16 08:46:30;;;;;;;1.00;0.20;;;;;;;-148.58;100.00;55229.56;4996771;28;20417;-60
2021/06/16 08:48:56;;;;;;;0.30;0.10;;;;;;;-148.58;100.00;55229.56;4993763;28;20033;-60
2021/06/16 08:51:21;;;;;;;0.82;0.10;;;;;;;-148.58;100.00;55229.56;4994217;28;20097;-60
2021/06/16 08:53:49;;;;;;;0.35;0.20;;;;;;;-148.58;100.00;55229.56;4991427;28;20031;-61
2021/06/16 08:56:14;;;;;;;0.10;0.10;;;;;;;-148.58;100.00;55229.56;4996513;28;20026;-60
2021/06/16 08:58:41;;;;;;;0.00;0.00;;;;;;;-148.58;100.00;55229.56;4992375;28;20070;-60
2021/06/16 09:01:09;;;;;;;0.47;0.28;;;;;;;-148.58;100.00;55229.56;4994029;28;20352;-60
2021/06/16 09:03:35;;;;;;;0.00;0.00;;;;;;;-148.58;100.00;55229.56;4995288;28;20049;-60
2021/06/16 09:06:12;;;;;;;0.00;0.00;;;;;;;-148.58;100.00;55229.56;5009787;28;20389;-61
2021/06/16 09:09:10;;;;;;;0.68;0.00;;;;;;;-148.58;100.00;55229.56;5013137;28;20030;-60
2021/06/16 09:11:39;;;;;;;2.08;0.10;;;;;;;-148.58;100.00;55229.56;4950580;28;20035;-61
2021/06/16 09:14:11;;;;;;;0.45;0.10;;;;;;;-148.58;100.00;55229.56;4945892;29;20046;-62
2021/06/16 09:16:36;;;;;;;0.25;0.00;;;;;;;-148.58;100.00;55229.56;4938085;29;20479;-61
2021/06/16 09:19:02;;;;;;;0.32;0.10;;;;;;;-148.58;100.00;55229.56;4950560;29;20550;-60
2021/06/16 09:21:32;;;;;;;0.00;0.00;;;;;;;-148.58;100.00;55229.56;4935526;29;20039;-60
2021/06/16 09:23:59;;;;;;;0.43;0.10;;;;;;;-148.58;100.00;55229.56;4939843;29;20042;-60
2021/06/16 09:26:29;;;;;;;0.10;0.00;;;;;;;-148.58;100.00;55229.56;4938135;29;20266;-59
2021/06/16 09:28:54;;;;;;;0.10;0.00;;;;;;;-148.58;100.00;55229.56;4937484;29;20035;-60
2021/06/16 09:31:23;;;;;;;0.10;0.00;;;;;;;-148.58;100.00;55229.56;4946421;29;20031;-59
2021/06/16 09:33:50;;;;;;;0.10;0.00;;;;;;;-148.58;100.00;55229.56;4939708;29;20395;-59
2021/06/16 09:36:21;;;;;;;0.28;0.00;;;;;;;-148.58;100.00;55229.56;4951339;29;20114;-59
2021/06/16 09:38:49;;;;;;;0.20;0.00;;;;;;;-148.58;100.00;55229.56;4950331;29;20471;-59
2021/06/16 09:41:20;;;;;;;0.20;0.00;;;;;;;-148.58;100.00;55229.56;4941771;28;20102;-59
2021/06/16 09:43:48;;;;;;;0.55;0.05;;;;;;;-148.58;100.00;55229.56;4955973;28;20039;-59
2021/06/16 09:46:14;;;;;;;0.35;0.10;;;;;;;-148.58;100.00;55229.56;4956523;28;20040;-58
2021/06/16 09:48:42;;;;;;;0.15;0.00;;;;;;;-148.58;100.00;55229.56;5002545;28;20112;-59
2021/06/16 09:51:10;;;;;;;0.60;0.10;;;;;;;-148.58;100.00;55229.56;5009083;28;20080;-59
2021/06/16 09:53:58;;;;;;;0.10;0.00;;;;;;;-148.58;100.00;55229.56;5003070;28;20026;-59
2021/06/16 09:56:25;;;;;;;0.00;0.00;;;;;;;-148.58;100.00;55229.56;5008419;28;20021;-59
2021/06/16 09:58:52;;;;;;;0.20;0.10;;;;;;;-148.58;100.00;55229.56;4983753;28;20417;-58
2021/06/16 10:01:17;;;;;;;0.10;0.10;;;;;;;-148.58;100.00;55229.56;5009317;28;20482;-58
2021/06/16 10:03:42;;;;;;;0.98;0.10;;;;;;;-148.58;100.00;55229.56;5005647;28;20035;-61
2021/06/16 10:06:10;;;;;;;0.35;0.10;;;;;;;-148.58;100.00;55229.56;5004683;28;20037;-58
2021/06/16 10:08:42;;;;;;;0.57;0.20;;;;;;;-148.58;100.00;55229.56;5014389;28;20064;-59
2021/06/16 10:11:09;;;;;;;0.80;0.10;;;;;;;-148.58;100.00;55229.56;5014741;28;20044;-59
2021/06/16 10:13:36;;;;;;;1.27;0.10;;;;;;;-148.58;100.00;55229.56;5016608;28;20061;-58
2021/06/16 10:16:02;;;;;;;0.65;0.10;;;;;;;-148.58;100.00;55229.56;5015938;28;20076;-58
2021/06/16 10:18:29;;;;;;;0.20;0.10;;;;;;;-148.58;100.00;55229.56;5014403;28;20029;-58
2021/06/16 10:20:56;;;;;;;1.42;0.10;;;;;;;-148.58;100.00;55229.56;5012194;28;20469;-58
2021/06/16 10:23:23;;;;;;;0.40;0.10;;;;;;;-148.58;100.00;55229.56;5016409;28;20056;-59
2021/06/16 10:25:48;;;;;;;0.25;0.00;;;;;;;-148.58;100.00;55229.56;5015368;28;20022;-58
2021/06/16 10:28:23;;;;;;;0.32;0.10;;;;;;;-148.58;100.00;55229.56;5015786;28;20047;-58
2021/06/16 10:30:54;;;;;;;0.20;0.10;;;;;;;-148.58;100.00;55229.56;5015812;28;20022;-58
2021/06/16 10:33:31;;;;;;;0.00;0.00;;;;;;;-148.58;100.00;55229.56;5016223;28;20473;-58
2021/06/16 10:36:13;;;;;;;0.20;0.00;;;;;;;-148.58;100.00;55229.56;4998251;28;20030;-58
2021/06/16 10:38:40;;;;;;;0.00;0.00;;;;;;;-148.58;100.00;55229.56;5016082;28;20054;-59
2021/06/16 10:41:05;;;;;;;0.60;0.10;;;;;;;-148.58;100.00;55229.56;5015879;28;20026;-59
2021/06/16 10:43:33;;;;;;;0.00;0.00;;;;;;;-148.58;100.00;55229.56;5016087;28;20380;-58
2021/06/16 10:46:04;;;;;;;0.70;0.00;;;;;;;-148.58;100.00;55229.56;5014837;28;20056;-58
2021/06/16 10:48:44;;;;;;;0.08;0.03;;;;;;;-148.58;100.00;55229.56;5015893;28;20030;-58
2021/06/16 10:51:29;;;;;;;0.47;0.00;;;;;;;-148.58;100.00;55229.56;5014291;28;20106;-58
2021/06/16 10:54:28;;;;;;;0.57;0.20;;;;;;;-148.58;100.00;55229.56;5014410;28;20049;-59
2021/06/16 10:56:55;;;;;;;0.10;0.00;;;;;;;-148.58;100.00;55229.56;5013308;28;20026;-59
2021/06/16 10:59:39;;;;;;;0.80;0.30;;;;;;;-148.58;100.00;55229.56;5028283;28;20460;-58
2021/06/16 11:02:04;;;;;;;0.77;0.10;;;;;;;-148.58;100.00;55229.56;5015030;28;20030;-58
2021/06/16 11:04:31;;;;;;;0.13;0.10;;;;;;;-148.58;100.00;55229.56;5015020;28;20359;-59
2021/06/16 11:06:58;;;;;;;0.00;0.00;;;;;;;-148.58;100.00;55229.56;5015180;28;20034;-59
2021/06/16 11:09:51;;;;;;;0.75;0.10;;;;;;;-148.58;100.00;55229.56;5014110;28;20410;-59